Time;durP1;ratioP1;P1;durP2;ratioP2;P2;SDS_P1;SDS_P2;PMS_P1;PMS_P2;Temp;Humidity;BMP_temperature;BMP_pressure;BME280_temperature;BME280_humidity;BME280_pressure;Samples;Min_cycle;Max_cycle;Signal;HPM_P1;HPM_P2
2023/12/27 00:00:54;;;;;;;14.85;8.23;;;;;;;;;;4796139;29;20183;-76
2023/12/27 00:03:21;;;;;;;17.40;8.50;;;;;;;;;;4817767;29;20735;-75
2023/12/27 00:05:47;;;;;;;12.82;7.75;;;;;;;;;;4821135;29;20058;-75
2023/12/27 00:08:14;;;;;;;13.30;7.32;;;;;;;;;;4800275;29;20058;-76
2023/12/27 00:10:40;;;;;;;15.63;7.82;;;;;;;;;;4821553;29;20082;-72
2023/12/27 00:13:06;;;;;;;13.30;7.47;;;;;;;;;;4799648;29;20144;-76
2023/12/27 00:15:33;;;;;;;11.38;7.47;;;;;;;;;;4811137;29;20085;-76
2023/12/27 00:17:59;;;;;;;16.17;8.38;;;;;;;;;;4794246;29;20122;-75
2023/12/27 00:20:26;;;;;;;11.93;7.22;;;;;;;;;;4801095;29;20058;-75
2023/12/27 00:22:53;;;;;;;13.05;7.50;;;;;;;;;;4814766;29;20058;-73
2023/12/27 00:25:19;;;;;;;14.30;8.02;;;;;;;;;;4810620;29;20100;-74
2023/12/27 00:27:46;;;;;;;14.45;7.30;;;;;;;;;;4799211;29;20494;-73
2023/12/27 00:30:12;;;;;;;14.40;8.02;;;;;;;;;;4806692;29;20519;-74
2023/12/27 00:32:39;;;;;;;12.02;7.55;;;;;;;;;;4813124;29;20428;-74
2023/12/27 00:35:05;;;;;;;15.93;8.27;;;;;;;;;;4816096;29;20093;-75
2023/12/27 00:37:32;;;;;;;16.15;8.07;;;;;;;;;;4804635;29;20055;-75
2023/12/27 00:39:58;;;;;;;19.15;8.90;;;;;;;;;;4791403;29;20444;-75
2023/12/27 00:42:25;;;;;;;12.77;7.05;;;;;;;;;;4807951;29;20575;-75
2023/12/27 00:44:51;;;;;;;16.98;8.55;;;;;;;;;;4810220;29;20082;-75
2023/12/27 00:47:18;;;;;;;17.80;8.30;;;;;;;;;;4813375;29;20061;-75
2023/12/27 00:49:45;;;;;;;11.10;6.82;;;;;;;;;;4795825;29;20054;-76
2023/12/27 00:52:12;;;;;;;12.65;8.05;;;;;;;;;;4815477;29;20065;-76
2023/12/27 00:54:38;;;;;;;12.93;7.50;;;;;;;;;;4805329;29;20163;-75
2023/12/27 00:57:05;;;;;;;12.32;7.22;;;;;;;;;;4793847;29;20443;-75
2023/12/27 00:59:32;;;;;;;12.07;7.28;;;;;;;;;;4807128;29;20057;-74
2023/12/27 01:01:58;;;;;;;15.15;8.00;;;;;;;;;;4813145;29;20078;-75
2023/12/27 01:04:24;;;;;;;15.07;7.65;;;;;;;;;;4815979;29;20139;-75
2023/12/27 01:06:51;;;;;;;13.73;8.02;;;;;;;;;;4793358;29;20053;-77
2023/12/27 01:09:18;;;;;;;16.92;8.07;;;;;;;;;;4798180;29;20154;-75
2023/12/27 01:11:44;;;;;;;16.90;8.65;;;;;;;;;;4805904;29;20053;-75
2023/12/27 01:14:10;;;;;;;10.52;6.45;;;;;;;;;;4811035;29;20118;-76
2023/12/27 01:16:37;;;;;;;14.98;7.20;;;;;;;;;;4810128;29;20058;-75
2023/12/27 01:19:03;;;;;;;16.77;7.65;;;;;;;;;;4799908;29;20056;-76
2023/12/27 01:21:30;;;;;;;13.73;7.25;;;;;;;;;;4812332;29;20116;-76
2023/12/27 01:23:56;;;;;;;14.77;8.55;;;;;;;;;;4793421;29;20088;-74
2023/12/27 01:26:23;;;;;;;16.70;7.78;;;;;;;;;;4810644;29;20086;-74
2023/12/27 01:28:49;;;;;;;13.05;7.97;;;;;;;;;;4811346;29;20054;-73
2023/12/27 01:31:15;;;;;;;16.48;8.27;;;;;;;;;;4809147;29;20054;-74
2023/12/27 01:33:42;;;;;;;16.42;8.48;;;;;;;;;;4809825;29;20050;-73
2023/12/27 01:36:09;;;;;;;18.88;8.15;;;;;;;;;;4809129;29;20085;-73
2023/12/27 01:38:35;;;;;;;15.13;8.35;;;;;;;;;;4821249;29;20149;-73
2023/12/27 01:41:02;;;;;;;16.90;8.18;;;;;;;;;;4803073;29;20058;-73
2023/12/27 01:43:28;;;;;;;15.20;7.57;;;;;;;;;;4813311;29;20161;-73
2023/12/27 01:45:55;;;;;;;12.55;7.55;;;;;;;;;;4815956;29;20467;-74
2023/12/27 01:48:22;;;;;;;12.68;6.78;;;;;;;;;;4809344;29;20149;-73
2023/12/27 01:50:49;;;;;;;13.95;6.95;;;;;;;;;;4813733;29;20468;-73
2023/12/27 01:53:19;;;;;;;11.85;7.13;;;;;;;;;;4793429;29;20945;-74
2023/12/27 01:55:46;;;;;;;13.75;7.20;;;;;;;;;;4796780;29;20056;-73
2023/12/27 01:58:13;;;;;;;11.35;6.70;;;;;;;;;;4812651;29;20091;-74
2023/12/27 02:00:41;;;;;;;17.23;6.90;;;;;;;;;;4800946;29;20141;-73
2023/12/27 02:03:08;;;;;;;13.32;7.10;;;;;;;;;;4814843;29;20513;-74
2023/12/27 02:05:35;;;;;;;12.48;7.03;;;;;;;;;;4808076;29;20086;-73
2023/12/27 02:08:02;;;;;;;13.10;6.80;;;;;;;;;;4794510;29;20063;-73
2023/12/27 02:10:29;;;;;;;16.42;7.47;;;;;;;;;;4810766;29;20062;-73
2023/12/27 02:12:55;;;;;;;13.02;6.95;;;;;;;;;;4807737;29;20115;-73
2023/12/27 02:15:22;;;;;;;13.23;7.13;;;;;;;;;;4810270;29;20140;-74
2023/12/27 02:17:49;;;;;;;13.02;6.57;;;;;;;;;;4791846;29;20149;-73
2023/12/27 02:20:16;;;;;;;15.32;5.95;;;;;;;;;;4801209;29;20060;-73
2023/12/27 02:22:44;;;;;;;11.65;6.45;;;;;;;;;;4804481;29;20054;-73
2023/12/27 02:25:11;;;;;;;15.57;7.95;;;;;;;;;;4790564;29;20057;-74
2023/12/27 02:27:37;;;;;;;11.20;5.97;;;;;;;;;;4796932;29;20069;-74
2023/12/27 02:30:04;;;;;;;11.27;7.10;;;;;;;;;;4809074;29;20106;-73
2023/12/27 02:32:31;;;;;;;13.77;6.70;;;;;;;;;;4814170;29;20092;-73
2023/12/27 02:34:57;;;;;;;11.15;6.47;;;;;;;;;;4807640;29;20149;-74
2023/12/27 02:37:24;;;;;;;9.52;5.88;;;;;;;;;;4806761;29;20058;-74
2023/12/27 02:39:50;;;;;;;13.23;6.43;;;;;;;;;;4812242;29;20047;-75
2023/12/27 02:42:17;;;;;;;10.82;5.63;;;;;;;;;;4807830;29;20494;-76
2023/12/27 02:44:43;;;;;;;11.00;6.10;;;;;;;;;;4797924;29;20058;-75
2023/12/27 02:47:10;;;;;;;12.02;6.30;;;;;;;;;;4809532;29;20146;-75
2023/12/27 02:49:36;;;;;;;14.80;6.60;;;;;;;;;;4798090;29;20062;-75
2023/12/27 02:52:03;;;;;;;15.68;6.43;;;;;;;;;;4809283;29;20146;-75
2023/12/27 02:54:29;;;;;;;10.57;5.82;;;;;;;;;;4820071;29;20054;-75
2023/12/27 02:56:56;;;;;;;11.80;6.07;;;;;;;;;;4813476;29;20054;-75
2023/12/27 02:59:22;;;;;;;12.60;6.30;;;;;;;;;;4806785;29;20143;-76
2023/12/27 03:01:50;;;;;;;11.75;6.35;;;;;;;;;;4796485;29;20120;-75
2023/12/27 03:04:17;;;;;;;14.13;6.00;;;;;;;;;;4809657;29;20054;-76
2023/12/27 03:06:43;;;;;;;11.90;5.40;;;;;;;;;;4811812;29;20301;-77
2023/12/27 03:09:10;;;;;;;8.95;5.53;;;;;;;;;;4818697;29;20158;-77
2023/12/27 03:11:36;;;;;;;12.02;6.40;;;;;;;;;;4812665;29;20422;-77
2023/12/27 03:14:03;;;;;;;10.75;6.07;;;;;;;;;;4818844;29;20058;-77
2023/12/27 03:16:29;;;;;;;10.13;5.20;;;;;;;;;;4798809;29;20057;-76
2023/12/27 03:18:56;;;;;;;10.23;5.97;;;;;;;;;;4814916;29;20078;-76
2023/12/27 03:21:22;;;;;;;12.32;5.72;;;;;;;;;;4814402;29;20064;-76
2023/12/27 03:23:49;;;;;;;12.88;5.85;;;;;;;;;;4813656;29;20050;-76
2023/12/27 03:26:15;;;;;;;14.77;5.78;;;;;;;;;;4815209;29;20117;-76
2023/12/27 03:28:42;;;;;;;12.23;6.20;;;;;;;;;;4813011;29;20053;-76
2023/12/27 03:31:08;;;;;;;11.02;5.60;;;;;;;;;;4819328;29;20145;-76
2023/12/27 03:33:35;;;;;;;12.05;5.82;;;;;;;;;;4815421;29;21037;-76
2023/12/27 03:36:01;;;;;;;15.27;6.13;;;;;;;;;;4793380;29;20110;-76
2023/12/27 03:38:28;;;;;;;12.25;5.82;;;;;;;;;;4818358;29;20310;-76
2023/12/27 03:40:54;;;;;;;12.23;6.38;;;;;;;;;;4812847;29;20582;-76
2023/12/27 03:43:20;;;;;;;17.48;5.93;;;;;;;;;;4819552;29;20050;-76
2023/12/27 03:45:49;;;;;;;11.63;5.88;;;;;;;;;;4803921;29;20150;-76
2023/12/27 03:48:15;;;;;;;;;;;;;;;;;;4809655;29;20081;-76
2023/12/27 03:50:42;;;;;;;9.60;5.43;;;;;;;;;;4814491;29;20404;-77
2023/12/27 03:53:08;;;;;;;13.40;5.70;;;;;;;;;;4812675;29;20555;-76
2023/12/27 03:55:35;;;;;;;10.15;5.78;;;;;;;;;;4817816;29;20085;-77
2023/12/27 03:58:01;;;;;;;11.27;6.60;;;;;;;;;;4816295;29;20128;-76
2023/12/27 04:00:28;;;;;;;11.15;5.63;;;;;;;;;;4817857;29;20050;-77
2023/12/27 04:02:54;;;;;;;13.68;5.63;;;;;;;;;;4815179;29;20058;-76
2023/12/27 04:05:21;;;;;;;9.18;5.35;;;;;;;;;;4792816;29;20608;-76
2023/12/27 04:07:47;;;;;;;11.98;5.65;;;;;;;;;;4814910;29;20050;-76
2023/12/27 04:10:14;;;;;;;15.32;6.57;;;;;;;;;;4813862;29;20062;-76
2023/12/27 04:12:40;;;;;;;14.13;5.85;;;;;;;;;;4819000;29;20046;-76
2023/12/27 04:15:07;;;;;;;8.52;5.63;;;;;;;;;;4797206;29;20155;-76
2023/12/27 04:17:33;;;;;;;14.95;5.95;;;;;;;;;;4811432;29;20484;-77
2023/12/27 04:20:00;;;;;;;12.80;6.45;;;;;;;;;;4816685;29;20050;-76
2023/12/27 04:22:26;;;;;;;15.77;7.05;;;;;;;;;;4816909;29;20120;-75
2023/12/27 04:24:53;;;;;;;15.68;6.35;;;;;;;;;;4800078;29;20058;-76
2023/12/27 04:27:22;;;;;;;16.65;7.00;;;;;;;;;;4813439;29;20059;-76
2023/12/27 04:29:48;;;;;;;15.18;6.28;;;;;;;;;;4795481;29;20706;-76
2023/12/27 04:32:14;;;;;;;13.40;6.15;;;;;;;;;;4807262;29;20158;-76
2023/12/27 04:34:41;;;;;;;14.80;5.97;;;;;;;;;;4811092;29;20050;-76
2023/12/27 04:37:07;;;;;;;23.70;6.10;;;;;;;;;;4814005;29;20054;-76
2023/12/27 04:39:35;;;;;;;16.10;7.35;;;;;;;;;;4812197;29;20046;-77
2023/12/27 04:42:01;;;;;;;16.35;6.38;;;;;;;;;;4811887;29;20239;-76
2023/12/27 04:44:27;;;;;;;14.80;6.20;;;;;;;;;;4821885;29;20062;-76
2023/12/27 04:46:54;;;;;;;16.77;7.05;;;;;;;;;;4811496;29;20065;-76
2023/12/27 04:49:20;;;;;;;11.75;5.40;;;;;;;;;;4815544;29;20054;-76
2023/12/27 04:51:47;;;;;;;18.40;7.78;;;;;;;;;;4808706;29;20064;-77
2023/12/27 04:54:13;;;;;;;15.30;7.07;;;;;;;;;;4813313;29;20104;-76
2023/12/27 04:56:40;;;;;;;15.35;7.45;;;;;;;;;;4800267;29;20128;-76
2023/12/27 04:59:06;;;;;;;23.02;7.22;;;;;;;;;;4807821;29;20063;-76
2023/12/27 05:01:33;;;;;;;13.40;7.63;;;;;;;;;;4797068;29;20137;-76
2023/12/27 05:03:59;;;;;;;13.20;6.82;;;;;;;;;;4810267;29;20507;-76
2023/12/27 05:06:26;;;;;;;13.15;7.03;;;;;;;;;;4796577;29;20518;-76
2023/12/27 05:08:52;;;;;;;16.27;7.00;;;;;;;;;;4812356;29;20057;-76
2023/12/27 05:11:19;;;;;;;15.50;6.68;;;;;;;;;;4810965;29;20145;-76
2023/12/27 05:13:46;;;;;;;16.52;7.07;;;;;;;;;;4814726;29;20054;-76
2023/12/27 05:16:13;;;;;;;16.95;6.32;;;;;;;;;;4799424;29;20111;-76
2023/12/27 05:18:40;;;;;;;15.20;6.43;;;;;;;;;;4816182;29;20559;-77
2023/12/27 05:21:08;;;;;;;15.32;7.30;;;;;;;;;;4803815;29;20064;-76
2023/12/27 05:23:34;;;;;;;15.65;7.30;;;;;;;;;;4812464;29;20053;-76
2023/12/27 05:26:01;;;;;;;17.40;6.97;;;;;;;;;;4816451;29;20066;-76
2023/12/27 05:28:28;;;;;;;13.63;6.30;;;;;;;;;;4811178;29;20050;-76
2023/12/27 05:30:54;;;;;;;15.30;6.90;;;;;;;;;;4800199;29;20650;-78
2023/12/27 05:33:21;;;;;;;16.60;8.02;;;;;;;;;;4810594;29;20070;-76
2023/12/27 05:35:47;;;;;;;17.00;7.32;;;;;;;;;;4796076;29;20054;-76
2023/12/27 05:38:14;;;;;;;16.83;7.10;;;;;;;;;;4813122;29;20479;-76
2023/12/27 05:40:40;;;;;;;12.05;6.65;;;;;;;;;;4811182;29;20050;-76
2023/12/27 05:43:07;;;;;;;22.88;7.75;;;;;;;;;;4816044;29;20567;-76
2023/12/27 05:45:33;;;;;;;13.27;7.10;;;;;;;;;;4815289;29;20122;-77
2023/12/27 05:48:00;;;;;;;22.20;6.80;;;;;;;;;;4814876;29;20670;-77
2023/12/27 05:50:27;;;;;;;17.55;6.78;;;;;;;;;;4811611;29;20084;-77
2023/12/27 05:52:54;;;;;;;12.77;5.60;;;;;;;;;;4808346;29;20137;-77
2023/12/27 05:55:20;;;;;;;17.33;7.65;;;;;;;;;;4816692;29;20058;-77
2023/12/27 05:57:47;;;;;;;12.75;5.95;;;;;;;;;;4808266;29;20054;-77
2023/12/27 06:00:16;;;;;;;18.90;6.78;;;;;;;;;;4800285;29;20046;-77
2023/12/27 06:02:43;;;;;;;15.13;6.70;;;;;;;;;;4808213;29;20062;-77
2023/12/27 06:05:13;;;;;;;18.58;6.57;;;;;;;;;;4794870;29;20061;-78
2023/12/27 06:07:40;;;;;;;18.30;7.57;;;;;;;;;;4800742;29;20149;-75
2023/12/27 06:10:06;;;;;;;8.52;4.80;;;;;;;;;;4808796;29;20069;-76
2023/12/27 06:12:33;;;;;;;13.27;5.72;;;;;;;;;;4815770;29;20680;-77
2023/12/27 06:15:00;;;;;;;16.58;6.20;;;;;;;;;;4809482;29;20682;-76
2023/12/27 06:17:26;;;;;;;13.27;6.50;;;;;;;;;;4811797;29;20141;-75
2023/12/27 06:19:53;;;;;;;10.25;5.05;;;;;;;;;;4811844;29;20081;-76
2023/12/27 06:22:19;;;;;;;17.00;6.53;;;;;;;;;;4809874;29;20074;-76
2023/12/27 06:24:45;;;;;;;12.60;5.25;;;;;;;;;;4813184;29;20221;-76
2023/12/27 06:27:13;;;;;;;16.38;5.43;;;;;;;;;;4800709;29;20062;-76
2023/12/27 06:29:40;;;;;;;14.27;5.13;;;;;;;;;;4815326;29;20149;-75
2023/12/27 06:32:06;;;;;;;13.30;6.28;;;;;;;;;;4801625;29;20142;-75
2023/12/27 06:34:32;;;;;;;16.83;6.50;;;;;;;;;;4805990;29;20062;-75
2023/12/27 06:36:59;;;;;;;13.68;5.35;;;;;;;;;;4797976;29;20066;-75
2023/12/27 06:39:25;;;;;;;12.48;5.97;;;;;;;;;;4809666;29;20519;-75
2023/12/27 06:41:52;;;;;;;13.50;6.13;;;;;;;;;;4799778;29;20058;-75
2023/12/27 06:44:18;;;;;;;14.98;6.20;;;;;;;;;;4797375;29;20403;-75
2023/12/27 06:46:44;;;;;;;13.82;6.65;;;;;;;;;;4810846;29;20536;-75
2023/12/27 06:49:11;;;;;;;16.80;6.70;;;;;;;;;;4811995;29;20065;-74
2023/12/27 06:51:37;;;;;;;16.73;6.72;;;;;;;;;;4792710;29;20069;-74
2023/12/27 06:54:04;;;;;;;18.23;6.68;;;;;;;;;;4815401;29;20046;-74
2023/12/27 06:56:30;;;;;;;16.63;6.38;;;;;;;;;;4810111;29;20053;-74
2023/12/27 06:58:57;;;;;;;13.88;6.82;;;;;;;;;;4798631;29;20801;-74
2023/12/27 07:01:24;;;;;;;19.48;6.93;;;;;;;;;;4815163;29;20145;-74
2023/12/27 07:03:51;;;;;;;15.05;6.40;;;;;;;;;;4794121;29;20059;-75
2023/12/27 07:06:17;;;;;;;14.82;6.22;;;;;;;;;;4798089;29;20062;-75
2023/12/27 07:08:45;;;;;;;16.00;5.85;;;;;;;;;;4795879;29;20062;-73
2023/12/27 07:11:18;;;;;;;19.20;7.53;;;;;;;;;;4815001;29;20138;-76
2023/12/27 07:13:46;;;;;;;17.50;7.03;;;;;;;;;;4809311;29;20054;-75
2023/12/27 07:16:13;;;;;;;20.48;6.90;;;;;;;;;;4807461;29;20500;-76
2023/12/27 07:18:40;;;;;;;20.52;6.97;;;;;;;;;;4797612;29;20251;-76
2023/12/27 07:21:06;;;;;;;19.60;7.20;;;;;;;;;;4814290;29;20052;-76
2023/12/27 07:23:33;;;;;;;18.50;6.97;;;;;;;;;;4792926;29;20062;-77
2023/12/27 07:25:59;;;;;;;19.85;7.07;;;;;;;;;;4809249;29;20145;-75
2023/12/27 07:28:26;;;;;;;13.45;5.65;;;;;;;;;;4811391;29;20583;-75
2023/12/27 07:30:52;;;;;;;17.73;6.03;;;;;;;;;;4808412;29;20115;-75
2023/12/27 07:33:19;;;;;;;14.23;6.97;;;;;;;;;;4811281;29;20066;-75
2023/12/27 07:35:46;;;;;;;16.88;6.70;;;;;;;;;;4813931;29;20065;-76
2023/12/27 07:38:13;;;;;;;12.18;5.50;;;;;;;;;;4809391;29;20066;-75
2023/12/27 07:40:44;;;;;;;12.43;5.55;;;;;;;;;;4814533;29;20046;-75
2023/12/27 07:43:10;;;;;;;16.30;5.90;;;;;;;;;;4800277;29;20734;-76
2023/12/27 07:45:37;;;;;;;19.02;6.50;;;;;;;;;;4810343;29;20054;-76
2023/12/27 07:48:03;;;;;;;15.50;6.20;;;;;;;;;;4798426;29;20057;-76
2023/12/27 07:50:31;;;;;;;14.05;6.38;;;;;;;;;;4808994;29;20074;-76
2023/12/27 07:52:57;;;;;;;17.00;6.45;;;;;;;;;;4815904;29;20054;-75
2023/12/27 07:55:23;;;;;;;21.15;7.38;;;;;;;;;;4812465;29;20058;-75
2023/12/27 07:57:50;;;;;;;17.20;6.53;;;;;;;;;;4811795;29;20059;-76
2023/12/27 08:00:17;;;;;;;15.30;6.60;;;;;;;;;;4814161;29;20138;-75
2023/12/27 08:02:44;;;;;;;13.07;5.43;;;;;;;;;;4813566;29;21180;-75
2023/12/27 08:05:10;;;;;;;14.45;6.10;;;;;;;;;;4817964;29;20050;-76
2023/12/27 08:07:38;;;;;;;16.23;6.40;;;;;;;;;;4811013;29;20500;-75
2023/12/27 08:10:06;;;;;;;15.40;6.57;;;;;;;;;;4817499;29;20062;-75
2023/12/27 08:12:32;;;;;;;19.35;7.70;;;;;;;;;;4792700;29;20170;-74
2023/12/27 08:14:59;;;;;;;16.58;7.40;;;;;;;;;;4811573;29;20070;-75
2023/12/27 08:17:26;;;;;;;14.93;6.30;;;;;;;;;;4817379;29;20054;-76
2023/12/27 08:19:53;;;;;;;17.58;7.03;;;;;;;;;;4806689;29;20063;-76
2023/12/27 08:22:20;;;;;;;15.65;6.95;;;;;;;;;;4816711;29;20887;-76
2023/12/27 08:24:47;;;;;;;13.88;6.75;;;;;;;;;;4796805;29;20047;-76
2023/12/27 08:27:13;;;;;;;14.23;7.22;;;;;;;;;;4800888;29;20721;-76
2023/12/27 08:29:41;;;;;;;19.90;8.77;;;;;;;;;;4813014;29;20058;-76
2023/12/27 08:32:08;;;;;;;20.40;8.23;;;;;;;;;;4811363;29;20054;-77
2023/12/27 08:34:34;;;;;;;16.08;7.72;;;;;;;;;;4817246;29;20686;-76
2023/12/27 08:37:00;;;;;;;17.45;8.60;;;;;;;;;;4795089;29;20054;-77
2023/12/27 08:39:27;;;;;;;14.65;7.22;;;;;;;;;;4817238;29;20057;-77
2023/12/27 08:41:53;;;;;;;16.48;7.38;;;;;;;;;;4812020;29;20054;-76
2023/12/27 08:44:20;;;;;;;13.93;6.47;;;;;;;;;;4812180;29;20126;-76
2023/12/27 08:46:46;;;;;;;9.82;6.28;;;;;;;;;;4818498;29;20050;-77
2023/12/27 08:49:12;;;;;;;12.63;6.53;;;;;;;;;;4811927;29;20058;-77
2023/12/27 08:51:39;;;;;;;12.60;6.47;;;;;;;;;;4820229;29;20050;-77
2023/12/27 08:54:06;;;;;;;10.25;5.75;;;;;;;;;;4810958;29;20081;-77
2023/12/27 08:56:32;;;;;;;12.30;6.60;;;;;;;;;;4811779;29;20089;-77
2023/12/27 08:58:59;;;;;;;15.55;7.10;;;;;;;;;;4815108;29;20118;-77
2023/12/27 09:01:25;;;;;;;9.48;6.20;;;;;;;;;;4814623;29;20058;-76
2023/12/27 09:03:51;;;;;;;9.25;6.20;;;;;;;;;;4816814;29;20046;-77
2023/12/27 09:06:18;;;;;;;9.57;5.30;;;;;;;;;;4810292;29;20046;-76
2023/12/27 09:08:44;;;;;;;11.52;6.72;;;;;;;;;;4797219;29;20490;-76
2023/12/27 09:11:11;;;;;;;12.73;5.95;;;;;;;;;;4813125;29;20050;-78
2023/12/27 09:13:37;;;;;;;10.73;6.30;;;;;;;;;;4810882;29;20634;-77
2023/12/27 09:16:04;;;;;;;12.45;6.00;;;;;;;;;;4816313;29;20111;-77
2023/12/27 09:18:30;;;;;;;11.82;6.65;;;;;;;;;;4811271;29;20450;-77
2023/12/27 09:20:57;;;;;;;11.93;6.53;;;;;;;;;;4816507;29;20054;-77
2023/12/27 09:23:23;;;;;;;10.63;6.53;;;;;;;;;;4810634;29;20062;-77
2023/12/27 09:25:50;;;;;;;10.48;6.20;;;;;;;;;;4809734;29;20050;-78
2023/12/27 09:28:18;;;;;;;8.07;5.47;;;;;;;;;;4816411;29;20720;-77
2023/12/27 09:30:44;;;;;;;10.38;5.45;;;;;;;;;;4810584;29;20111;-79
2023/12/27 09:33:11;;;;;;;8.82;5.25;;;;;;;;;;4816796;29;20070;-77
2023/12/27 09:35:41;;;;;;;9.30;5.90;;;;;;;;;;4796136;29;20146;-79
2023/12/27 09:38:08;;;;;;;9.15;5.78;;;;;;;;;;4797252;29;20085;-77
2023/12/27 09:40:34;;;;;;;8.63;5.60;;;;;;;;;;4799625;29;20059;-73
2023/12/27 09:43:03;;;;;;;8.20;5.78;;;;;;;;;;4811323;29;20541;-76
2023/12/27 09:45:32;;;;;;;11.00;6.10;;;;;;;;;;4821423;29;20066;-78
2023/12/27 09:47:59;;;;;;;;;;;;;;;;;;4797424;29;20099;-77
2023/12/27 09:50:25;;;;;;;10.15;5.50;;;;;;;;;;4811123;29;19925;-77
2023/12/27 09:52:53;;;;;;;9.10;6.20;;;;;;;;;;4799228;29;20097;-76
2023/12/27 09:55:20;;;;;;;7.70;5.77;;;;;;;;;;4810347;29;20145;-76
2023/12/27 09:57:48;;;;;;;9.45;5.55;;;;;;;;;;4795330;29;20417;-75
2023/12/27 10:00:16;;;;;;;;;;;;;;;;;;4807896;29;20142;-75
2023/12/27 10:02:44;;;;;;;8.13;5.40;;;;;;;;;;4816085;29;20714;-75
2023/12/27 10:05:15;;;;;;;6.50;5.03;;;;;;;;;;4805684;29;20083;-74
2023/12/27 10:07:42;;;;;;;8.68;5.93;;;;;;;;;;4814869;29;20066;-73
2023/12/27 10:10:08;;;;;;;7.57;5.57;;;;;;;;;;4813896;29;20058;-73
2023/12/27 10:12:50;;;;;;;7.85;5.45;;;;;;;;;;4803800;29;20093;-73
2023/12/27 10:15:17;;;;;;;8.00;6.00;;;;;;;;;;4814133;29;20052;-73
2023/12/27 10:17:43;;;;;;;9.43;5.80;;;;;;;;;;4789193;29;20050;-74
2023/12/27 10:20:29;;;;;;;9.63;6.00;;;;;;;;;;4812805;29;20062;-73
2023/12/27 10:22:55;;;;;;;7.00;5.57;;;;;;;;;;4810926;29;20049;-76
2023/12/27 10:25:21;;;;;;;9.48;6.28;;;;;;;;;;4802850;29;20555;-76
2023/12/27 10:27:48;;;;;;;8.95;5.72;;;;;;;;;;4813487;29;20133;-75
2023/12/27 10:30:18;;;;;;;8.77;6.20;;;;;;;;;;4800059;29;20527;-75
2023/12/27 10:32:55;;;;;;;7.50;5.57;;;;;;;;;;4805304;29;20185;-78
2023/12/27 10:35:22;;;;;;;6.88;5.15;;;;;;;;;;4810176;29;20066;-80
2023/12/27 10:37:57;;;;;;;6.80;5.40;;;;;;;;;;4815852;29;20058;-78
2023/12/27 10:40:24;;;;;;;6.93;4.80;;;;;;;;;;4799636;29;20465;-77
2023/12/27 10:42:51;;;;;;;11.02;4.70;;;;;;;;;;4809519;29;20631;-77
2023/12/27 10:45:17;;;;;;;10.57;5.15;;;;;;;;;;4815328;29;20111;-77
2023/12/27 10:47:47;;;;;;;7.50;4.20;;;;;;;;;;4805524;29;20111;-77
2023/12/27 10:50:18;;;;;;;9.70;5.15;;;;;;;;;;4792215;29;20133;-76
2023/12/27 10:52:50;;;;;;;7.75;5.28;;;;;;;;;;4810704;29;20119;-75
2023/12/27 10:55:18;;;;;;;7.63;5.05;;;;;;;;;;4799375;29;20074;-75
2023/12/27 10:57:46;;;;;;;9.80;5.38;;;;;;;;;;4814613;29;20209;-76
2023/12/27 11:00:13;;;;;;;8.52;5.47;;;;;;;;;;4805536;29;20107;-75
2023/12/27 11:02:40;;;;;;;8.73;5.60;;;;;;;;;;4814146;29;20111;-73
2023/12/27 11:05:07;;;;;;;7.15;4.57;;;;;;;;;;4809903;29;20174;-74
2023/12/27 11:07:35;;;;;;;9.73;4.93;;;;;;;;;;4810487;29;20115;-73
2023/12/27 11:10:05;;;;;;;12.20;5.60;;;;;;;;;;4814984;29;20069;-76
2023/12/27 11:12:32;;;;;;;7.93;4.93;;;;;;;;;;4805948;29;20068;-74
2023/12/27 11:15:02;;;;;;;8.43;4.38;;;;;;;;;;4807106;29;20055;-75
2023/12/27 11:17:30;;;;;;;6.50;4.28;;;;;;;;;;4803250;29;20513;-74
2023/12/27 11:19:57;;;;;;;7.25;4.35;;;;;;;;;;4815753;29;20055;-76
2023/12/27 11:22:24;;;;;;;10.18;4.25;;;;;;;;;;4806902;29;20064;-74
2023/12/27 11:24:50;;;;;;;8.30;4.05;;;;;;;;;;4812900;29;20142;-75
2023/12/27 11:27:18;;;;;;;6.78;4.18;;;;;;;;;;4803048;29;20054;-76
2023/12/27 11:29:45;;;;;;;6.20;3.97;;;;;;;;;;4809566;29;20069;-76
2023/12/27 11:32:11;;;;;;;6.60;4.15;;;;;;;;;;4815465;29;20138;-75
2023/12/27 11:34:37;;;;;;;7.90;4.22;;;;;;;;;;4812067;29;20054;-75
2023/12/27 11:37:05;;;;;;;6.68;4.10;;;;;;;;;;4825426;29;20042;-76
2023/12/27 11:39:32;;;;;;;6.32;3.75;;;;;;;;;;4816367;29;20050;-74
2023/12/27 11:42:00;;;;;;;10.85;4.70;;;;;;;;;;4809547;29;20065;-73
2023/12/27 11:44:39;;;;;;;9.43;4.32;;;;;;;;;;4821992;29;20495;-75
2023/12/27 11:47:13;;;;;;;7.07;3.58;;;;;;;;;;4804528;29;20054;-73
2023/12/27 11:49:40;;;;;;;6.10;3.63;;;;;;;;;;4818770;29;20046;-73
2023/12/27 11:52:07;;;;;;;7.68;3.75;;;;;;;;;;4812629;29;20138;-77
2023/12/27 11:54:33;;;;;;;8.15;4.03;;;;;;;;;;4814725;29;20081;-74
2023/12/27 11:57:00;;;;;;;7.35;3.60;;;;;;;;;;4814946;29;20050;-71
2023/12/27 11:59:27;;;;;;;4.57;3.30;;;;;;;;;;4812495;29;20116;-70
2023/12/27 12:01:55;;;;;;;9.05;4.25;;;;;;;;;;4802525;29;20129;-71
2023/12/27 12:04:33;;;;;;;8.00;3.15;;;;;;;;;;4814025;29;20063;-71
2023/12/27 12:07:12;;;;;;;6.47;3.60;;;;;;;;;;4809248;29;20066;-73
2023/12/27 12:09:44;;;;;;;8.77;3.92;;;;;;;;;;4812553;29;20126;-71
2023/12/27 12:12:14;;;;;;;5.13;3.10;;;;;;;;;;4814077;29;20153;-73
2023/12/27 12:14:41;;;;;;;7.50;3.28;;;;;;;;;;4811759;29;20589;-73
2023/12/27 12:17:08;;;;;;;7.50;3.65;;;;;;;;;;4795890;29;20153;-74
2023/12/27 12:19:37;;;;;;;7.35;3.47;;;;;;;;;;4818733;29;20054;-72
2023/12/27 12:22:04;;;;;;;5.90;3.47;;;;;;;;;;4818350;29;20610;-73
2023/12/27 12:24:32;;;;;;;5.80;3.67;;;;;;;;;;4803497;29;20069;-72
2023/12/27 12:26:59;;;;;;;7.78;3.55;;;;;;;;;;4816393;29;20644;-74
2023/12/27 12:29:26;;;;;;;5.50;3.45;;;;;;;;;;4813037;29;20734;-75
2023/12/27 12:31:55;;;;;;;7.03;3.20;;;;;;;;;;4801561;29;20177;-76
2023/12/27 12:34:22;;;;;;;5.68;3.17;;;;;;;;;;4813752;29;20090;-76
2023/12/27 12:36:50;;;;;;;5.28;3.15;;;;;;;;;;4816939;29;20057;-74
2023/12/27 12:39:17;;;;;;;5.03;2.97;;;;;;;;;;4808944;29;20550;-75
2023/12/27 12:41:44;;;;;;;6.47;3.00;;;;;;;;;;4817479;29;20065;-76
2023/12/27 12:44:10;;;;;;;7.70;3.35;;;;;;;;;;4812378;29;20079;-77
2023/12/27 12:46:38;;;;;;;7.22;3.15;;;;;;;;;;4809413;29;20058;-73
2023/12/27 12:49:05;;;;;;;7.10;3.10;;;;;;;;;;4819877;29;20369;-80
2023/12/27 12:51:32;;;;;;;9.45;2.95;;;;;;;;;;4810755;29;20157;-79
2023/12/27 12:53:59;;;;;;;10.63;4.22;;;;;;;;;;4810472;29;20147;-77
2023/12/27 12:56:25;;;;;;;4.35;2.80;;;;;;;;;;4817500;29;20046;-77
2023/12/27 12:58:52;;;;;;;6.30;2.72;;;;;;;;;;4795140;29;20166;-74
2023/12/27 13:01:19;;;;;;;5.40;3.22;;;;;;;;;;4801081;29;20134;-75
2023/12/27 13:03:48;;;;;;;8.10;3.08;;;;;;;;;;4811639;29;20135;-75
2023/12/27 13:06:15;;;;;;;10.00;3.40;;;;;;;;;;4810248;29;20066;-75
2023/12/27 13:08:42;;;;;;;7.72;3.20;;;;;;;;;;4814427;29;20886;-77
2023/12/27 13:11:10;;;;;;;5.28;2.92;;;;;;;;;;4815822;29;20432;-82
2023/12/27 13:13:37;;;;;;;5.32;2.90;;;;;;;;;;4818178;29;20149;-76
2023/12/27 13:16:04;;;;;;;6.63;3.60;;;;;;;;;;4812349;29;20066;-74
2023/12/27 13:18:31;;;;;;;9.10;3.08;;;;;;;;;;4809515;29;20146;-73
2023/12/27 13:20:58;;;;;;;7.15;3.17;;;;;;;;;;4806654;29;20090;-74
2023/12/27 13:23:24;;;;;;;11.48;3.03;;;;;;;;;;4805806;29;20058;-74
2023/12/27 13:25:50;;;;;;;8.85;3.03;;;;;;;;;;4817291;29;20252;-75
2023/12/27 13:28:25;;;;;;;8.75;3.45;;;;;;;;;;4811772;29;20066;-75
2023/12/27 13:30:52;;;;;;;10.70;3.33;;;;;;;;;;4800855;29;20078;-74
2023/12/27 13:33:21;;;;;;;10.48;2.90;;;;;;;;;;4807964;29;20097;-76
2023/12/27 13:35:48;;;;;;;10.43;3.05;;;;;;;;;;4811390;29;20062;-75
2023/12/27 13:38:14;;;;;;;11.60;3.25;;;;;;;;;;4808292;29;20046;-74
2023/12/27 13:40:41;;;;;;;7.72;3.00;;;;;;;;;;4811502;29;20173;-74
2023/12/27 13:43:08;;;;;;;9.63;2.78;;;;;;;;;;4802675;29;20541;-72
2023/12/27 13:45:35;;;;;;;7.47;2.92;;;;;;;;;;4803360;29;20140;-73
2023/12/27 13:48:02;;;;;;;7.85;3.40;;;;;;;;;;4812419;29;20054;-72
2023/12/27 13:50:29;;;;;;;9.23;3.17;;;;;;;;;;4811135;29;20049;-72
2023/12/27 13:52:55;;;;;;;11.23;3.60;;;;;;;;;;4815613;29;20444;-72
2023/12/27 13:55:22;;;;;;;8.25;2.92;;;;;;;;;;4817198;29;20800;-72
2023/12/27 13:57:49;;;;;;;7.97;2.40;;;;;;;;;;4811319;29;20062;-72
2023/12/27 14:00:19;;;;;;;8.98;3.03;;;;;;;;;;4812860;29;20651;-73
2023/12/27 14:02:49;;;;;;;9.48;3.38;;;;;;;;;;4804828;29;20188;-73
2023/12/27 14:05:17;;;;;;;6.45;3.10;;;;;;;;;;4816517;29;20542;-72
2023/12/27 14:07:43;;;;;;;6.75;2.92;;;;;;;;;;4812214;29;20053;-74
2023/12/27 14:10:12;;;;;;;7.82;2.92;;;;;;;;;;4795150;29;20122;-73
2023/12/27 14:12:42;;;;;;;8.48;3.17;;;;;;;;;;4815755;29;20131;-74
2023/12/27 14:15:10;;;;;;;8.20;3.10;;;;;;;;;;4796983;29;20667;-73
2023/12/27 14:17:39;;;;;;;9.05;3.30;;;;;;;;;;4806167;29;20679;-76
2023/12/27 14:20:06;;;;;;;8.18;3.92;;;;;;;;;;4813043;29;20062;-71
2023/12/27 14:22:33;;;;;;;7.13;2.90;;;;;;;;;;4814459;29;20054;-70
2023/12/27 14:25:01;;;;;;;10.40;3.20;;;;;;;;;;4818883;29;20072;-72
2023/12/27 14:27:27;;;;;;;11.20;3.63;;;;;;;;;;4810130;29;20111;-72
2023/12/27 14:29:54;;;;;;;9.32;3.30;;;;;;;;;;4811532;29;20486;-72
2023/12/27 14:32:21;;;;;;;7.50;3.10;;;;;;;;;;4806736;29;20058;-71
2023/12/27 14:34:47;;;;;;;7.75;3.38;;;;;;;;;;4815227;29;20099;-72